sensor_id;sensor_type;location;lat;lon;timestamp;P1;durP1;ratioP1;P2;durP2;ratioP2
12838;SDS011;6486;51.034;5.262;2024-02-28T00:02:01;4.50;;;2.80;;
12838;SDS011;6486;51.034;5.262;2024-02-28T00:04:27;5.67;;;3.93;;
12838;SDS011;6486;51.034;5.262;2024-02-28T00:06:52;6.27;;;3.60;;
12838;SDS011;6486;51.034;5.262;2024-02-28T00:09:18;4.77;;;4.10;;
12838;SDS011;6486;51.034;5.262;2024-02-28T00:11:44;3.87;;;3.17;;
12838;SDS011;6486;51.034;5.262;2024-02-28T00:14:10;4.10;;;3.33;;
12838;SDS011;6486;51.034;5.262;2024-02-28T00:16:36;4.47;;;3.03;;
12838;SDS011;6486;51.034;5.262;2024-02-28T00:19:05;4.50;;;3.50;;
12838;SDS011;6486;51.034;5.262;2024-02-28T00:21:30;4.20;;;3.00;;
12838;SDS011;6486;51.034;5.262;2024-02-28T00:23:56;4.10;;;3.17;;
12838;SDS011;6486;51.034;5.262;2024-02-28T00:26:22;6.33;;;3.80;;
12838;SDS011;6486;51.034;5.262;2024-02-28T00:28:47;3.63;;;2.80;;
12838;SDS011;6486;51.034;5.262;2024-02-28T00:31:13;4.60;;;2.60;;
12838;SDS011;6486;51.034;5.262;2024-02-28T00:33:38;4.77;;;3.00;;
12838;SDS011;6486;51.034;5.262;2024-02-28T00:36:04;3.43;;;2.83;;
12838;SDS011;6486;51.034;5.262;2024-02-28T00:38:30;4.33;;;3.53;;
12838;SDS011;6486;51.034;5.262;2024-02-28T00:40:55;4.83;;;2.80;;
12838;SDS011;6486;51.034;5.262;2024-02-28T00:43:21;6.70;;;3.67;;
12838;SDS011;6486;51.034;5.262;2024-02-28T00:45:47;4.73;;;3.17;;
12838;SDS011;6486;51.034;5.262;2024-02-28T00:48:12;4.13;;;3.27;;
12838;SDS011;6486;51.034;5.262;2024-02-28T00:50:38;5.33;;;3.33;;
12838;SDS011;6486;51.034;5.262;2024-02-28T00:53:04;3.33;;;2.60;;
12838;SDS011;6486;51.034;5.262;2024-02-28T00:55:30;4.17;;;2.83;;
12838;SDS011;6486;51.034;5.262;2024-02-28T00:57:55;5.03;;;3.37;;
12838;SDS011;6486;51.034;5.262;2024-02-28T01:00:21;4.37;;;3.00;;
12838;SDS011;6486;51.034;5.262;2024-02-28T01:02:46;5.20;;;3.77;;
12838;SDS011;6486;51.034;5.262;2024-02-28T01:05:12;4.93;;;3.77;;
12838;SDS011;6486;51.034;5.262;2024-02-28T01:07:38;2.87;;;2.57;;
12838;SDS011;6486;51.034;5.262;2024-02-28T01:10:04;6.17;;;3.70;;
12838;SDS011;6486;51.034;5.262;2024-02-28T01:12:32;4.53;;;3.63;;
12838;SDS011;6486;51.034;5.262;2024-02-28T01:14:58;5.07;;;3.53;;
12838;SDS011;6486;51.034;5.262;2024-02-28T01:17:23;5.07;;;3.57;;
12838;SDS011;6486;51.034;5.262;2024-02-28T01:19:50;4.33;;;3.93;;
12838;SDS011;6486;51.034;5.262;2024-02-28T01:22:15;4.57;;;3.20;;
12838;SDS011;6486;51.034;5.262;2024-02-28T01:24:42;5.03;;;3.60;;
12838;SDS011;6486;51.034;5.262;2024-02-28T01:27:08;4.83;;;3.60;;
12838;SDS011;6486;51.034;5.262;2024-02-28T01:29:33;6.93;;;4.43;;
12838;SDS011;6486;51.034;5.262;2024-02-28T01:31:59;5.17;;;3.40;;
12838;SDS011;6486;51.034;5.262;2024-02-28T01:34:25;6.67;;;4.20;;
12838;SDS011;6486;51.034;5.262;2024-02-28T01:36:50;4.63;;;3.37;;
12838;SDS011;6486;51.034;5.262;2024-02-28T01:39:16;5.27;;;3.57;;
12838;SDS011;6486;51.034;5.262;2024-02-28T01:41:49;5.53;;;3.87;;
12838;SDS011;6486;51.034;5.262;2024-02-28T01:44:18;7.57;;;4.23;;
12838;SDS011;6486;51.034;5.262;2024-02-28T01:46:45;6.07;;;4.13;;
12838;SDS011;6486;51.034;5.262;2024-02-28T01:49:11;5.17;;;3.63;;
12838;SDS011;6486;51.034;5.262;2024-02-28T01:51:38;4.77;;;3.50;;
12838;SDS011;6486;51.034;5.262;2024-02-28T01:54:04;4.70;;;3.27;;
12838;SDS011;6486;51.034;5.262;2024-02-28T01:56:31;5.30;;;3.83;;
12838;SDS011;6486;51.034;5.262;2024-02-28T01:58:57;5.40;;;4.43;;
12838;SDS011;6486;51.034;5.262;2024-02-28T02:01:23;4.13;;;2.97;;
12838;SDS011;6486;51.034;5.262;2024-02-28T02:03:49;4.77;;;3.40;;
12838;SDS011;6486;51.034;5.262;2024-02-28T02:06:14;4.37;;;3.47;;
12838;SDS011;6486;51.034;5.262;2024-02-28T02:08:40;6.07;;;3.57;;
12838;SDS011;6486;51.034;5.262;2024-02-28T02:11:06;5.97;;;3.87;;
12838;SDS011;6486;51.034;5.262;2024-02-28T02:13:32;3.80;;;3.10;;
12838;SDS011;6486;51.034;5.262;2024-02-28T02:15:57;5.83;;;3.50;;
12838;SDS011;6486;51.034;5.262;2024-02-28T02:18:23;5.37;;;2.90;;
12838;SDS011;6486;51.034;5.262;2024-02-28T02:20:54;4.50;;;3.13;;
12838;SDS011;6486;51.034;5.262;2024-02-28T02:23:27;4.73;;;3.13;;
12838;SDS011;6486;51.034;5.262;2024-02-28T02:25:52;4.33;;;3.90;;
12838;SDS011;6486;51.034;5.262;2024-02-28T02:28:18;4.37;;;3.30;;
12838;SDS011;6486;51.034;5.262;2024-02-28T02:30:44;6.70;;;4.07;;
12838;SDS011;6486;51.034;5.262;2024-02-28T02:33:12;6.03;;;3.33;;
12838;SDS011;6486;51.034;5.262;2024-02-28T02:35:37;4.27;;;3.13;;
12838;SDS011;6486;51.034;5.262;2024-02-28T02:38:03;4.20;;;3.37;;
12838;SDS011;6486;51.034;5.262;2024-02-28T02:40:29;4.53;;;3.23;;
12838;SDS011;6486;51.034;5.262;2024-02-28T02:42:54;5.07;;;3.20;;
12838;SDS011;6486;51.034;5.262;2024-02-28T02:45:20;4.83;;;3.20;;
12838;SDS011;6486;51.034;5.262;2024-02-28T02:47:45;4.90;;;3.60;;
12838;SDS011;6486;51.034;5.262;2024-02-28T02:50:11;4.07;;;3.17;;
12838;SDS011;6486;51.034;5.262;2024-02-28T02:52:37;3.50;;;3.03;;
12838;SDS011;6486;51.034;5.262;2024-02-28T02:55:03;3.87;;;2.87;;
12838;SDS011;6486;51.034;5.262;2024-02-28T02:57:29;6.20;;;2.93;;
12838;SDS011;6486;51.034;5.262;2024-02-28T02:59:57;4.40;;;2.93;;
12838;SDS011;6486;51.034;5.262;2024-02-28T03:02:23;6.27;;;3.40;;
12838;SDS011;6486;51.034;5.262;2024-02-28T03:04:48;4.73;;;2.83;;
12838;SDS011;6486;51.034;5.262;2024-02-28T03:07:14;4.83;;;3.17;;
12838;SDS011;6486;51.034;5.262;2024-02-28T03:09:40;6.23;;;3.37;;
12838;SDS011;6486;51.034;5.262;2024-02-28T03:12:07;4.20;;;2.67;;
12838;SDS011;6486;51.034;5.262;2024-02-28T03:14:34;5.03;;;3.20;;
12838;SDS011;6486;51.034;5.262;2024-02-28T03:17:00;2.73;;;2.53;;
12838;SDS011;6486;51.034;5.262;2024-02-28T03:19:26;3.67;;;2.43;;
12838;SDS011;6486;51.034;5.262;2024-02-28T03:21:52;2.77;;;2.33;;
12838;SDS011;6486;51.034;5.262;2024-02-28T03:24:18;4.47;;;2.80;;
12838;SDS011;6486;51.034;5.262;2024-02-28T03:26:43;6.43;;;3.73;;
12838;SDS011;6486;51.034;5.262;2024-02-28T03:29:09;4.67;;;2.67;;
12838;SDS011;6486;51.034;5.262;2024-02-28T03:31:35;3.33;;;3.03;;
12838;SDS011;6486;51.034;5.262;2024-02-28T03:34:00;2.87;;;2.10;;
12838;SDS011;6486;51.034;5.262;2024-02-28T03:36:28;3.43;;;2.63;;
12838;SDS011;6486;51.034;5.262;2024-02-28T03:38:54;3.90;;;2.97;;
12838;SDS011;6486;51.034;5.262;2024-02-28T03:41:20;2.60;;;2.40;;
12838;SDS011;6486;51.034;5.262;2024-02-28T03:43:45;4.70;;;2.77;;
12838;SDS011;6486;51.034;5.262;2024-02-28T03:46:11;4.53;;;3.20;;
12838;SDS011;6486;51.034;5.262;2024-02-28T03:48:36;3.40;;;2.43;;
12838;SDS011;6486;51.034;5.262;2024-02-28T03:51:02;2.40;;;2.20;;
12838;SDS011;6486;51.034;5.262;2024-02-28T03:53:28;3.23;;;2.67;;
12838;SDS011;6486;51.034;5.262;2024-02-28T03:55:54;3.47;;;2.90;;
12838;SDS011;6486;51.034;5.262;2024-02-28T03:58:19;4.17;;;2.57;;
12838;SDS011;6486;51.034;5.262;2024-02-28T04:00:45;3.67;;;3.10;;
12838;SDS011;6486;51.034;5.262;2024-02-28T04:03:11;2.17;;;2.03;;
12838;SDS011;6486;51.034;5.262;2024-02-28T04:05:38;3.83;;;2.23;;
12838;SDS011;6486;51.034;5.262;2024-02-28T04:08:04;4.13;;;3.03;;
12838;SDS011;6486;51.034;5.262;2024-02-28T04:10:30;4.53;;;2.70;;
12838;SDS011;6486;51.034;5.262;2024-02-28T04:12:56;2.37;;;2.17;;
12838;SDS011;6486;51.034;5.262;2024-02-28T04:15:22;3.97;;;2.33;;
12838;SDS011;6486;51.034;5.262;2024-02-28T04:17:50;3.33;;;2.23;;
12838;SDS011;6486;51.034;5.262;2024-02-28T04:20:16;3.20;;;2.30;;
12838;SDS011;6486;51.034;5.262;2024-02-28T04:22:42;2.97;;;2.47;;
12838;SDS011;6486;51.034;5.262;2024-02-28T04:25:08;3.10;;;2.40;;
12838;SDS011;6486;51.034;5.262;2024-02-28T04:27:34;5.30;;;2.93;;
12838;SDS011;6486;51.034;5.262;2024-02-28T04:30:03;3.83;;;3.03;;
12838;SDS011;6486;51.034;5.262;2024-02-28T04:32:30;3.57;;;2.37;;
12838;SDS011;6486;51.034;5.262;2024-02-28T04:34:55;3.33;;;2.90;;
12838;SDS011;6486;51.034;5.262;2024-02-28T04:37:21;2.33;;;2.13;;
12838;SDS011;6486;51.034;5.262;2024-02-28T04:39:47;4.53;;;2.63;;
12838;SDS011;6486;51.034;5.262;2024-02-28T04:42:13;3.43;;;2.40;;
12838;SDS011;6486;51.034;5.262;2024-02-28T04:44:39;3.13;;;2.43;;
12838;SDS011;6486;51.034;5.262;2024-02-28T04:47:05;4.50;;;2.20;;
12838;SDS011;6486;51.034;5.262;2024-02-28T04:49:30;4.50;;;2.33;;
12838;SDS011;6486;51.034;5.262;2024-02-28T04:51:56;2.40;;;2.20;;
12838;SDS011;6486;51.034;5.262;2024-02-28T04:54:22;3.57;;;3.00;;
12838;SDS011;6486;51.034;5.262;2024-02-28T04:56:47;2.97;;;2.20;;
12838;SDS011;6486;51.034;5.262;2024-02-28T04:59:13;2.67;;;2.00;;
12838;SDS011;6486;51.034;5.262;2024-02-28T05:01:39;2.87;;;2.53;;
12838;SDS011;6486;51.034;5.262;2024-02-28T05:04:06;4.07;;;2.80;;
12838;SDS011;6486;51.034;5.262;2024-02-28T05:06:32;4.37;;;2.63;;
12838;SDS011;6486;51.034;5.262;2024-02-28T05:08:58;3.77;;;2.90;;
12838;SDS011;6486;51.034;5.262;2024-02-28T05:11:24;3.23;;;2.67;;
12838;SDS011;6486;51.034;5.262;2024-02-28T05:13:50;5.27;;;3.50;;
12838;SDS011;6486;51.034;5.262;2024-02-28T05:16:15;4.30;;;3.10;;
12838;SDS011;6486;51.034;5.262;2024-02-28T05:18:41;2.63;;;2.43;;
12838;SDS011;6486;51.034;5.262;2024-02-28T05:21:09;2.40;;;2.20;;
12838;SDS011;6486;51.034;5.262;2024-02-28T05:23:35;3.20;;;2.13;;
12838;SDS011;6486;51.034;5.262;2024-02-28T05:26:01;3.60;;;2.30;;
12838;SDS011;6486;51.034;5.262;2024-02-28T05:28:38;2.60;;;2.03;;
12838;SDS011;6486;51.034;5.262;2024-02-28T05:31:25;3.40;;;3.10;;
12838;SDS011;6486;51.034;5.262;2024-02-28T05:33:51;3.60;;;2.83;;
12838;SDS011;6486;51.034;5.262;2024-02-28T05:36:23;3.93;;;2.83;;
12838;SDS011;6486;51.034;5.262;2024-02-28T05:38:50;3.40;;;2.33;;
12838;SDS011;6486;51.034;5.262;2024-02-28T05:41:16;3.37;;;2.17;;
12838;SDS011;6486;51.034;5.262;2024-02-28T05:43:42;3.77;;;2.57;;
12838;SDS011;6486;51.034;5.262;2024-02-28T05:46:08;3.37;;;2.70;;
12838;SDS011;6486;51.034;5.262;2024-02-28T05:48:34;3.90;;;2.10;;
12838;SDS011;6486;51.034;5.262;2024-02-28T05:51:00;2.43;;;2.00;;
12838;SDS011;6486;51.034;5.262;2024-02-28T05:53:27;4.90;;;3.10;;
12838;SDS011;6486;51.034;5.262;2024-02-28T05:55:54;4.97;;;3.20;;
12838;SDS011;6486;51.034;5.262;2024-02-28T05:58:22;5.37;;;2.43;;
12838;SDS011;6486;51.034;5.262;2024-02-28T06:00:48;3.73;;;2.40;;
12838;SDS011;6486;51.034;5.262;2024-02-28T06:03:14;4.10;;;2.83;;
12838;SDS011;6486;51.034;5.262;2024-02-28T06:05:40;3.10;;;2.33;;
12838;SDS011;6486;51.034;5.262;2024-02-28T06:08:05;2.93;;;2.13;;
12838;SDS011;6486;51.034;5.262;2024-02-28T06:10:31;2.80;;;2.10;;
12838;SDS011;6486;51.034;5.262;2024-02-28T06:12:57;2.33;;;2.10;;
12838;SDS011;6486;51.034;5.262;2024-02-28T06:15:23;2.70;;;2.20;;
12838;SDS011;6486;51.034;5.262;2024-02-28T06:17:49;3.33;;;2.30;;
12838;SDS011;6486;51.034;5.262;2024-02-28T06:20:14;3.43;;;2.60;;
12838;SDS011;6486;51.034;5.262;2024-02-28T06:22:40;2.97;;;2.67;;
12838;SDS011;6486;51.034;5.262;2024-02-28T06:25:06;3.50;;;2.50;;
12838;SDS011;6486;51.034;5.262;2024-02-28T06:27:38;3.20;;;2.57;;
12838;SDS011;6486;51.034;5.262;2024-02-28T06:30:05;3.80;;;2.50;;
12838;SDS011;6486;51.034;5.262;2024-02-28T06:32:32;3.00;;;2.00;;
12838;SDS011;6486;51.034;5.262;2024-02-28T06:34:57;3.00;;;2.53;;
12838;SDS011;6486;51.034;5.262;2024-02-28T06:37:24;2.67;;;1.97;;
12838;SDS011;6486;51.034;5.262;2024-02-28T06:39:49;3.13;;;2.30;;
12838;SDS011;6486;51.034;5.262;2024-02-28T06:42:15;4.30;;;2.67;;
12838;SDS011;6486;51.034;5.262;2024-02-28T06:44:40;3.73;;;2.50;;
12838;SDS011;6486;51.034;5.262;2024-02-28T06:47:06;3.70;;;1.73;;
12838;SDS011;6486;51.034;5.262;2024-02-28T06:49:32;2.80;;;2.57;;
12838;SDS011;6486;51.034;5.262;2024-02-28T06:51:58;3.63;;;2.33;;
12838;SDS011;6486;51.034;5.262;2024-02-28T06:54:26;2.37;;;2.17;;
12838;SDS011;6486;51.034;5.262;2024-02-28T06:56:52;2.77;;;2.27;;
12838;SDS011;6486;51.034;5.262;2024-02-28T06:59:18;2.60;;;2.37;;
12838;SDS011;6486;51.034;5.262;2024-02-28T07:01:43;2.33;;;2.10;;
12838;SDS011;6486;51.034;5.262;2024-02-28T07:04:09;3.17;;;2.10;;
12838;SDS011;6486;51.034;5.262;2024-02-28T07:06:34;2.80;;;2.00;;
12838;SDS011;6486;51.034;5.262;2024-02-28T07:09:00;4.13;;;2.43;;
12838;SDS011;6486;51.034;5.262;2024-02-28T07:11:26;3.50;;;2.47;;
12838;SDS011;6486;51.034;5.262;2024-02-28T07:13:51;3.37;;;2.40;;
12838;SDS011;6486;51.034;5.262;2024-02-28T07:16:17;3.30;;;2.40;;
12838;SDS011;6486;51.034;5.262;2024-02-28T07:18:43;4.83;;;2.63;;
12838;SDS011;6486;51.034;5.262;2024-02-28T07:21:09;2.33;;;1.93;;
12838;SDS011;6486;51.034;5.262;2024-02-28T07:23:34;2.77;;;1.70;;
12838;SDS011;6486;51.034;5.262;2024-02-28T07:26:00;3.13;;;1.90;;
12838;SDS011;6486;51.034;5.262;2024-02-28T07:28:25;2.93;;;2.30;;
12838;SDS011;6486;51.034;5.262;2024-02-28T07:30:51;3.13;;;2.00;;
12838;SDS011;6486;51.034;5.262;2024-02-28T07:33:17;2.07;;;1.90;;
12838;SDS011;6486;51.034;5.262;2024-02-28T07:35:46;2.10;;;1.90;;
12838;SDS011;6486;51.034;5.262;2024-02-28T07:38:11;2.43;;;2.23;;
12838;SDS011;6486;51.034;5.262;2024-02-28T07:40:37;2.30;;;1.87;;
12838;SDS011;6486;51.034;5.262;2024-02-28T07:43:03;2.23;;;1.63;;
12838;SDS011;6486;51.034;5.262;2024-02-28T07:45:28;1.83;;;1.70;;
12838;SDS011;6486;51.034;5.262;2024-02-28T07:47:54;2.40;;;1.70;;
12838;SDS011;6486;51.034;5.262;2024-02-28T07:50:20;2.97;;;1.77;;
12838;SDS011;6486;51.034;5.262;2024-02-28T07:52:45;2.27;;;2.07;;
12838;SDS011;6486;51.034;5.262;2024-02-28T07:55:11;3.07;;;2.23;;
12838;SDS011;6486;51.034;5.262;2024-02-28T07:57:37;1.93;;;1.80;;
12838;SDS011;6486;51.034;5.262;2024-02-28T08:00:03;3.20;;;2.23;;
12838;SDS011;6486;51.034;5.262;2024-02-28T08:02:29;4.13;;;1.90;;
12838;SDS011;6486;51.034;5.262;2024-02-28T08:04:54;2.27;;;1.83;;
12838;SDS011;6486;51.034;5.262;2024-02-28T08:07:21;2.10;;;1.70;;
12838;SDS011;6486;51.034;5.262;2024-02-28T08:09:46;3.03;;;2.00;;
12838;SDS011;6486;51.034;5.262;2024-02-28T08:12:12;3.13;;;2.13;;
12838;SDS011;6486;51.034;5.262;2024-02-28T08:14:37;1.77;;;1.50;;
12838;SDS011;6486;51.034;5.262;2024-02-28T08:17:03;2.03;;;1.80;;
12838;SDS011;6486;51.034;5.262;2024-02-28T08:19:29;3.03;;;2.10;;
12838;SDS011;6486;51.034;5.262;2024-02-28T08:21:55;1.70;;;1.57;;
12838;SDS011;6486;51.034;5.262;2024-02-28T08:24:20;4.23;;;2.03;;
12838;SDS011;6486;51.034;5.262;2024-02-28T08:26:46;1.60;;;1.50;;
12838;SDS011;6486;51.034;5.262;2024-02-28T08:29:12;1.67;;;1.53;;
12838;SDS011;6486;51.034;5.262;2024-02-28T08:31:41;1.80;;;1.37;;
12838;SDS011;6486;51.034;5.262;2024-02-28T08:34:08;1.27;;;1.10;;
12838;SDS011;6486;51.034;5.262;2024-02-28T08:36:35;4.33;;;2.17;;
12838;SDS011;6486;51.034;5.262;2024-02-28T08:39:01;2.47;;;1.83;;
12838;SDS011;6486;51.034;5.262;2024-02-28T08:41:29;2.33;;;1.73;;
12838;SDS011;6486;51.034;5.262;2024-02-28T08:43:56;2.90;;;1.57;;
12838;SDS011;6486;51.034;5.262;2024-02-28T08:46:22;2.83;;;1.90;;
12838;SDS011;6486;51.034;5.262;2024-02-28T08:48:47;1.63;;;1.47;;
12838;SDS011;6486;51.034;5.262;2024-02-28T08:51:13;1.97;;;1.33;;
12838;SDS011;6486;51.034;5.262;2024-02-28T08:53:38;2.40;;;1.97;;
12838;SDS011;6486;51.034;5.262;2024-02-28T08:56:04;2.10;;;1.17;;
12838;SDS011;6486;51.034;5.262;2024-02-28T08:58:31;2.17;;;1.97;;
12838;SDS011;6486;51.034;5.262;2024-02-28T09:00:57;1.50;;;1.40;;
12838;SDS011;6486;51.034;5.262;2024-02-28T09:03:23;1.50;;;1.10;;
12838;SDS011;6486;51.034;5.262;2024-02-28T09:05:49;1.70;;;1.40;;
12838;SDS011;6486;51.034;5.262;2024-02-28T09:08:14;1.57;;;1.27;;
12838;SDS011;6486;51.034;5.262;2024-02-28T09:10:40;2.43;;;1.30;;
12838;SDS011;6486;51.034;5.262;2024-02-28T09:13:06;1.57;;;1.20;;
12838;SDS011;6486;51.034;5.262;2024-02-28T09:15:33;2.20;;;2.00;;
12838;SDS011;6486;51.034;5.262;2024-02-28T09:17:59;1.83;;;1.43;;
12838;SDS011;6486;51.034;5.262;2024-02-28T09:20:25;1.10;;;1.00;;
12838;SDS011;6486;51.034;5.262;2024-02-28T09:22:51;1.83;;;1.67;;
12838;SDS011;6486;51.034;5.262;2024-02-28T09:25:17;2.53;;;1.70;;
12838;SDS011;6486;51.034;5.262;2024-02-28T09:27:43;1.50;;;1.30;;
12838;SDS011;6486;51.034;5.262;2024-02-28T09:30:09;1.93;;;1.40;;
12838;SDS011;6486;51.034;5.262;2024-02-28T09:32:35;3.33;;;1.37;;
12838;SDS011;6486;51.034;5.262;2024-02-28T09:35:02;1.63;;;1.40;;
12838;SDS011;6486;51.034;5.262;2024-02-28T09:37:29;1.53;;;1.07;;
12838;SDS011;6486;51.034;5.262;2024-02-28T09:39:55;0.87;;;0.83;;
12838;SDS011;6486;51.034;5.262;2024-02-28T09:42:20;2.10;;;1.50;;
12838;SDS011;6486;51.034;5.262;2024-02-28T09:44:46;1.77;;;1.60;;
12838;SDS011;6486;51.034;5.262;2024-02-28T09:47:11;3.27;;;1.30;;
12838;SDS011;6486;51.034;5.262;2024-02-28T09:49:38;1.63;;;1.23;;
12838;SDS011;6486;51.034;5.262;2024-02-28T09:52:04;1.87;;;1.53;;
12838;SDS011;6486;51.034;5.262;2024-02-28T09:54:30;1.07;;;1.07;;
12838;SDS011;6486;51.034;5.262;2024-02-28T09:56:55;1.37;;;1.13;;
12838;SDS011;6486;51.034;5.262;2024-02-28T09:59:21;3.93;;;1.47;;
12838;SDS011;6486;51.034;5.262;2024-02-28T10:01:53;0.83;;;0.83;;
12838;SDS011;6486;51.034;5.262;2024-02-28T10:04:23;1.40;;;1.30;;
12838;SDS011;6486;51.034;5.262;2024-02-28T10:06:52;1.53;;;1.17;;
12838;SDS011;6486;51.034;5.262;2024-02-28T10:09:18;1.27;;;0.87;;
12838;SDS011;6486;51.034;5.262;2024-02-28T10:11:44;2.40;;;1.20;;
12838;SDS011;6486;51.034;5.262;2024-02-28T10:14:11;1.23;;;1.13;;
12838;SDS011;6486;51.034;5.262;2024-02-28T10:16:37;2.23;;;0.97;;
12838;SDS011;6486;51.034;5.262;2024-02-28T10:19:04;3.03;;;1.60;;
12838;SDS011;6486;51.034;5.262;2024-02-28T10:21:30;0.93;;;0.93;;
12838;SDS011;6486;51.034;5.262;2024-02-28T10:23:58;1.63;;;1.00;;
12838;SDS011;6486;51.034;5.262;2024-02-28T10:26:24;2.00;;;1.50;;
12838;SDS011;6486;51.034;5.262;2024-02-28T10:28:50;1.37;;;1.00;;
12838;SDS011;6486;51.034;5.262;2024-02-28T10:31:16;1.33;;;0.90;;
12838;SDS011;6486;51.034;5.262;2024-02-28T10:33:42;2.10;;;1.23;;
12838;SDS011;6486;51.034;5.262;2024-02-28T10:36:07;2.20;;;1.80;;
12838;SDS011;6486;51.034;5.262;2024-02-28T10:38:34;0.90;;;0.83;;
12838;SDS011;6486;51.034;5.262;2024-02-28T10:41:01;1.23;;;1.13;;
12838;SDS011;6486;51.034;5.262;2024-02-28T10:43:30;1.30;;;1.10;;
12838;SDS011;6486;51.034;5.262;2024-02-28T10:45:57;1.90;;;1.37;;
12838;SDS011;6486;51.034;5.262;2024-02-28T10:48:24;0.80;;;0.70;;
12838;SDS011;6486;51.034;5.262;2024-02-28T10:50:50;0.80;;;0.80;;
12838;SDS011;6486;51.034;5.262;2024-02-28T10:53:16;1.90;;;0.93;;
12838;SDS011;6486;51.034;5.262;2024-02-28T10:55:47;1.00;;;0.90;;
12838;SDS011;6486;51.034;5.262;2024-02-28T10:58:14;2.03;;;1.43;;
12838;SDS011;6486;51.034;5.262;2024-02-28T11:00:41;0.90;;;0.70;;
12838;SDS011;6486;51.034;5.262;2024-02-28T11:03:09;1.70;;;1.20;;
12838;SDS011;6486;51.034;5.262;2024-02-28T11:05:39;1.10;;;1.00;;
12838;SDS011;6486;51.034;5.262;2024-02-28T11:08:09;1.90;;;1.10;;
12838;SDS011;6486;51.034;5.262;2024-02-28T11:10:39;1.57;;;1.20;;
12838;SDS011;6486;51.034;5.262;2024-02-28T11:13:09;1.50;;;1.37;;
12838;SDS011;6486;51.034;5.262;2024-02-28T11:15:45;1.10;;;1.00;;
12838;SDS011;6486;51.034;5.262;2024-02-28T11:18:11;1.83;;;1.27;;
12838;SDS011;6486;51.034;5.262;2024-02-28T11:20:37;1.10;;;1.00;;
12838;SDS011;6486;51.034;5.262;2024-02-28T11:23:07;1.10;;;0.83;;
12838;SDS011;6486;51.034;5.262;2024-02-28T11:25:34;1.50;;;1.40;;
12838;SDS011;6486;51.034;5.262;2024-02-28T11:28:00;1.13;;;0.97;;
12838;SDS011;6486;51.034;5.262;2024-02-28T11:30:25;2.80;;;1.53;;
12838;SDS011;6486;51.034;5.262;2024-02-28T11:32:52;1.10;;;1.00;;
12838;SDS011;6486;51.034;5.262;2024-02-28T11:35:18;1.20;;;1.10;;
12838;SDS011;6486;51.034;5.262;2024-02-28T11:37:47;0.83;;;0.80;;
12838;SDS011;6486;51.034;5.262;2024-02-28T11:40:14;4.93;;;1.13;;
12838;SDS011;6486;51.034;5.262;2024-02-28T11:42:39;3.47;;;1.00;;
12838;SDS011;6486;51.034;5.262;2024-02-28T11:45:05;1.33;;;0.70;;
12838;SDS011;6486;51.034;5.262;2024-02-28T11:47:34;1.53;;;1.23;;
12838;SDS011;6486;51.034;5.262;2024-02-28T11:50:01;1.20;;;0.90;;
12838;SDS011;6486;51.034;5.262;2024-02-28T11:52:29;0.87;;;0.80;;
12838;SDS011;6486;51.034;5.262;2024-02-28T11:54:55;1.23;;;1.07;;
12838;SDS011;6486;51.034;5.262;2024-02-28T11:57:21;1.60;;;0.97;;
12838;SDS011;6486;51.034;5.262;2024-02-28T11:59:47;1.10;;;1.10;;
12838;SDS011;6486;51.034;5.262;2024-02-28T12:02:14;1.67;;;1.10;;
12838;SDS011;6486;51.034;5.262;2024-02-28T12:04:44;2.00;;;0.77;;
12838;SDS011;6486;51.034;5.262;2024-02-28T12:07:10;1.27;;;0.77;;
12838;SDS011;6486;51.034;5.262;2024-02-28T12:09:36;0.70;;;0.70;;
12838;SDS011;6486;51.034;5.262;2024-02-28T12:12:03;0.87;;;0.73;;
12838;SDS011;6486;51.034;5.262;2024-02-28T12:14:36;1.13;;;1.03;;
12838;SDS011;6486;51.034;5.262;2024-02-28T12:17:02;1.73;;;0.63;;
12838;SDS011;6486;51.034;5.262;2024-02-28T12:19:29;0.93;;;0.80;;
12838;SDS011;6486;51.034;5.262;2024-02-28T12:21:54;0.83;;;0.83;;
12838;SDS011;6486;51.034;5.262;2024-02-28T12:24:20;0.60;;;0.60;;
12838;SDS011;6486;51.034;5.262;2024-02-28T12:26:46;2.83;;;0.90;;
12838;SDS011;6486;51.034;5.262;2024-02-28T12:29:12;0.90;;;0.77;;
12838;SDS011;6486;51.034;5.262;2024-02-28T12:31:38;2.47;;;0.70;;
12838;SDS011;6486;51.034;5.262;2024-02-28T12:34:04;0.97;;;0.77;;
12838;SDS011;6486;51.034;5.262;2024-02-28T12:36:30;0.67;;;0.67;;
12838;SDS011;6486;51.034;5.262;2024-02-28T12:38:57;2.40;;;1.50;;
12838;SDS011;6486;51.034;5.262;2024-02-28T12:41:24;1.10;;;0.80;;
12838;SDS011;6486;51.034;5.262;2024-02-28T12:43:50;0.93;;;0.77;;
12838;SDS011;6486;51.034;5.262;2024-02-28T12:46:16;0.67;;;0.63;;
12838;SDS011;6486;51.034;5.262;2024-02-28T12:48:42;1.17;;;0.80;;
12838;SDS011;6486;51.034;5.262;2024-02-28T12:51:08;1.07;;;0.97;;
12838;SDS011;6486;51.034;5.262;2024-02-28T12:53:38;0.93;;;0.80;;
12838;SDS011;6486;51.034;5.262;2024-02-28T12:56:04;0.80;;;0.50;;
12838;SDS011;6486;51.034;5.262;2024-02-28T12:58:29;1.60;;;0.67;;
12838;SDS011;6486;51.034;5.262;2024-02-28T13:00:55;1.13;;;0.97;;
12838;SDS011;6486;51.034;5.262;2024-02-28T13:03:20;1.13;;;0.73;;
12838;SDS011;6486;51.034;5.262;2024-02-28T13:05:46;2.73;;;0.60;;
12838;SDS011;6486;51.034;5.262;2024-02-28T13:08:12;1.43;;;1.10;;
12838;SDS011;6486;51.034;5.262;2024-02-28T13:10:38;1.30;;;0.73;;
12838;SDS011;6486;51.034;5.262;2024-02-28T13:13:06;1.57;;;0.73;;
12838;SDS011;6486;51.034;5.262;2024-02-28T13:15:32;1.03;;;0.60;;
12838;SDS011;6486;51.034;5.262;2024-02-28T13:17:59;0.57;;;0.50;;
12838;SDS011;6486;51.034;5.262;2024-02-28T13:20:26;1.23;;;0.80;;
12838;SDS011;6486;51.034;5.262;2024-02-28T13:22:51;0.77;;;0.67;;
12838;SDS011;6486;51.034;5.262;2024-02-28T13:25:17;0.83;;;0.60;;
12838;SDS011;6486;51.034;5.262;2024-02-28T13:27:44;0.77;;;0.73;;
12838;SDS011;6486;51.034;5.262;2024-02-28T13:30:11;2.60;;;0.90;;
12838;SDS011;6486;51.034;5.262;2024-02-28T13:32:38;1.07;;;0.70;;
12838;SDS011;6486;51.034;5.262;2024-02-28T13:35:04;0.70;;;0.70;;
12838;SDS011;6486;51.034;5.262;2024-02-28T13:37:30;1.80;;;0.60;;
12838;SDS011;6486;51.034;5.262;2024-02-28T13:39:57;3.73;;;1.83;;
12838;SDS011;6486;51.034;5.262;2024-02-28T13:42:23;0.37;;;0.37;;
12838;SDS011;6486;51.034;5.262;2024-02-28T13:44:49;0.90;;;0.80;;
12838;SDS011;6486;51.034;5.262;2024-02-28T13:47:16;0.63;;;0.50;;
12838;SDS011;6486;51.034;5.262;2024-02-28T13:49:41;1.20;;;1.10;;
12838;SDS011;6486;51.034;5.262;2024-02-28T13:52:07;0.50;;;0.50;;
12838;SDS011;6486;51.034;5.262;2024-02-28T13:54:33;0.60;;;0.40;;
12838;SDS011;6486;51.034;5.262;2024-02-28T13:57:01;1.03;;;0.80;;
12838;SDS011;6486;51.034;5.262;2024-02-28T13:59:26;0.80;;;0.80;;
12838;SDS011;6486;51.034;5.262;2024-02-28T14:01:52;0.90;;;0.80;;
12838;SDS011;6486;51.034;5.262;2024-02-28T14:04:18;0.73;;;0.60;;
12838;SDS011;6486;51.034;5.262;2024-02-28T14:06:44;0.80;;;0.70;;
12838;SDS011;6486;51.034;5.262;2024-02-28T14:09:10;0.43;;;0.40;;
12838;SDS011;6486;51.034;5.262;2024-02-28T14:11:36;0.53;;;0.50;;
12838;SDS011;6486;51.034;5.262;2024-02-28T14:14:02;0.60;;;0.60;;
12838;SDS011;6486;51.034;5.262;2024-02-28T14:16:27;0.60;;;0.60;;
12838;SDS011;6486;51.034;5.262;2024-02-28T14:18:54;3.87;;;1.13;;
12838;SDS011;6486;51.034;5.262;2024-02-28T14:21:20;0.83;;;0.47;;
12838;SDS011;6486;51.034;5.262;2024-02-28T14:23:47;1.27;;;0.77;;
12838;SDS011;6486;51.034;5.262;2024-02-28T14:26:13;0.63;;;0.60;;
12838;SDS011;6486;51.034;5.262;2024-02-28T14:28:39;0.70;;;0.40;;
12838;SDS011;6486;51.034;5.262;2024-02-28T14:31:05;0.33;;;0.33;;
12838;SDS011;6486;51.034;5.262;2024-02-28T14:33:31;0.97;;;0.70;;
12838;SDS011;6486;51.034;5.262;2024-02-28T14:35:57;0.87;;;0.60;;
12838;SDS011;6486;51.034;5.262;2024-02-28T14:38:24;0.40;;;0.40;;
12838;SDS011;6486;51.034;5.262;2024-02-28T14:40:50;1.83;;;0.53;;
12838;SDS011;6486;51.034;5.262;2024-02-28T14:43:15;0.77;;;0.37;;
12838;SDS011;6486;51.034;5.262;2024-02-28T14:45:41;0.63;;;0.63;;
12838;SDS011;6486;51.034;5.262;2024-02-28T14:48:07;0.30;;;0.30;;
12838;SDS011;6486;51.034;5.262;2024-02-28T14:50:32;0.53;;;0.30;;
12838;SDS011;6486;51.034;5.262;2024-02-28T14:52:58;0.60;;;0.60;;
12838;SDS011;6486;51.034;5.262;2024-02-28T14:55:23;0.93;;;0.50;;